sensor_id;sensor_type;location;lat;lon;timestamp;P1;durP1;ratioP1;P2;durP2;ratioP2
55037;SDS011;40937;53.594;10.034;2023-04-29T00:00:12;13.55;;;12.45;;
55037;SDS011;40937;53.594;10.034;2023-04-29T00:02:39;13.32;;;11.77;;
55037;SDS011;40937;53.594;10.034;2023-04-29T00:05:06;13.50;;;12.40;;
55037;SDS011;40937;53.594;10.034;2023-04-29T00:07:33;13.80;;;12.48;;
55037;SDS011;40937;53.594;10.034;2023-04-29T00:10:02;14.43;;;13.02;;
55037;SDS011;40937;53.594;10.034;2023-04-29T00:12:29;14.52;;;13.32;;
55037;SDS011;40937;53.594;10.034;2023-04-29T00:14:57;16.05;;;13.60;;
55037;SDS011;40937;53.594;10.034;2023-04-29T00:17:23;14.40;;;13.13;;
55037;SDS011;40937;53.594;10.034;2023-04-29T00:19:50;15.15;;;13.57;;
55037;SDS011;40937;53.594;10.034;2023-04-29T00:22:17;14.70;;;13.23;;
55037;SDS011;40937;53.594;10.034;2023-04-29T00:24:46;14.55;;;13.18;;
55037;SDS011;40937;53.594;10.034;2023-04-29T00:27:14;16.55;;;14.65;;
55037;SDS011;40937;53.594;10.034;2023-04-29T00:29:42;16.45;;;14.30;;
55037;SDS011;40937;53.594;10.034;2023-04-29T00:32:09;17.23;;;15.50;;
55037;SDS011;40937;53.594;10.034;2023-04-29T00:34:36;16.65;;;15.15;;
55037;SDS011;40937;53.594;10.034;2023-04-29T00:37:03;15.85;;;14.50;;
55037;SDS011;40937;53.594;10.034;2023-04-29T00:39:30;17.85;;;15.90;;
55037;SDS011;40937;53.594;10.034;2023-04-29T00:41:57;16.42;;;14.85;;
55037;SDS011;40937;53.594;10.034;2023-04-29T00:44:25;16.88;;;15.35;;
55037;SDS011;40937;53.594;10.034;2023-04-29T00:46:52;17.33;;;15.48;;
55037;SDS011;40937;53.594;10.034;2023-04-29T00:49:19;15.38;;;14.05;;
55037;SDS011;40937;53.594;10.034;2023-04-29T00:51:46;15.88;;;14.48;;
55037;SDS011;40937;53.594;10.034;2023-04-29T00:54:14;15.43;;;14.13;;
55037;SDS011;40937;53.594;10.034;2023-04-29T00:56:41;17.17;;;15.38;;
55037;SDS011;40937;53.594;10.034;2023-04-29T00:59:10;16.35;;;14.77;;
55037;SDS011;40937;53.594;10.034;2023-04-29T01:01:41;16.10;;;14.50;;
55037;SDS011;40937;53.594;10.034;2023-04-29T01:04:09;16.00;;;14.75;;
55037;SDS011;40937;53.594;10.034;2023-04-29T01:06:39;15.52;;;14.23;;
55037;SDS011;40937;53.594;10.034;2023-04-29T01:09:16;15.95;;;14.25;;
55037;SDS011;40937;53.594;10.034;2023-04-29T01:14:11;15.40;;;14.00;;
55037;SDS011;40937;53.594;10.034;2023-04-29T01:16:40;15.57;;;13.75;;
55037;SDS011;40937;53.594;10.034;2023-04-29T01:19:18;15.18;;;13.52;;
55037;SDS011;40937;53.594;10.034;2023-04-29T01:21:48;17.65;;;14.48;;
55037;SDS011;40937;53.594;10.034;2023-04-29T01:24:18;16.08;;;14.15;;
55037;SDS011;40937;53.594;10.034;2023-04-29T01:26:50;15.55;;;14.15;;
55037;SDS011;40937;53.594;10.034;2023-04-29T01:29:42;17.30;;;14.48;;
55037;SDS011;40937;53.594;10.034;2023-04-29T01:32:12;16.80;;;15.05;;
55037;SDS011;40937;53.594;10.034;2023-04-29T01:34:41;16.20;;;14.85;;
55037;SDS011;40937;53.594;10.034;2023-04-29T01:37:13;18.02;;;16.42;;
55037;SDS011;40937;53.594;10.034;2023-04-29T01:39:50;19.20;;;15.45;;
55037;SDS011;40937;53.594;10.034;2023-04-29T01:42:21;17.38;;;15.82;;
55037;SDS011;40937;53.594;10.034;2023-04-29T01:44:53;17.10;;;15.57;;
55037;SDS011;40937;53.594;10.034;2023-04-29T01:47:22;17.00;;;15.32;;
55037;SDS011;40937;53.594;10.034;2023-04-29T01:49:52;19.67;;;15.45;;
55037;SDS011;40937;53.594;10.034;2023-04-29T01:52:19;17.48;;;15.88;;
55037;SDS011;40937;53.594;10.034;2023-04-29T01:54:55;18.30;;;16.58;;
55037;SDS011;40937;53.594;10.034;2023-04-29T01:57:25;17.83;;;15.98;;
55037;SDS011;40937;53.594;10.034;2023-04-29T01:59:57;17.40;;;15.80;;
55037;SDS011;40937;53.594;10.034;2023-04-29T02:02:29;17.30;;;15.80;;
55037;SDS011;40937;53.594;10.034;2023-04-29T02:05:06;17.52;;;15.77;;
55037;SDS011;40937;53.594;10.034;2023-04-29T02:07:40;17.75;;;16.02;;
55037;SDS011;40937;53.594;10.034;2023-04-29T02:10:10;18.45;;;16.50;;
55037;SDS011;40937;53.594;10.034;2023-04-29T02:12:40;17.40;;;15.75;;
55037;SDS011;40937;53.594;10.034;2023-04-29T02:15:07;17.05;;;15.45;;
55037;SDS011;40937;53.594;10.034;2023-04-29T02:17:34;19.20;;;17.50;;
55037;SDS011;40937;53.594;10.034;2023-04-29T02:20:01;25.30;;;17.15;;
55037;SDS011;40937;53.594;10.034;2023-04-29T02:22:28;18.75;;;16.92;;
55037;SDS011;40937;53.594;10.034;2023-04-29T02:24:56;18.67;;;16.98;;
55037;SDS011;40937;53.594;10.034;2023-04-29T02:27:25;20.55;;;18.25;;
55037;SDS011;40937;53.594;10.034;2023-04-29T02:29:52;21.10;;;17.83;;
55037;SDS011;40937;53.594;10.034;2023-04-29T02:32:19;20.58;;;18.63;;
55037;SDS011;40937;53.594;10.034;2023-04-29T02:34:45;20.40;;;18.30;;
55037;SDS011;40937;53.594;10.034;2023-04-29T02:37:13;19.25;;;17.48;;
55037;SDS011;40937;53.594;10.034;2023-04-29T02:39:43;20.52;;;18.73;;
55037;SDS011;40937;53.594;10.034;2023-04-29T02:42:11;21.48;;;19.05;;
55037;SDS011;40937;53.594;10.034;2023-04-29T02:44:40;20.48;;;18.20;;
55037;SDS011;40937;53.594;10.034;2023-04-29T02:47:07;19.95;;;18.33;;
55037;SDS011;40937;53.594;10.034;2023-04-29T02:49:34;22.05;;;20.15;;
55037;SDS011;40937;53.594;10.034;2023-04-29T02:52:01;20.00;;;17.92;;
55037;SDS011;40937;53.594;10.034;2023-04-29T02:54:29;21.38;;;18.85;;
55037;SDS011;40937;53.594;10.034;2023-04-29T02:56:56;19.92;;;17.58;;
55037;SDS011;40937;53.594;10.034;2023-04-29T02:59:23;18.45;;;16.85;;
55037;SDS011;40937;53.594;10.034;2023-04-29T03:01:51;20.10;;;18.52;;
55037;SDS011;40937;53.594;10.034;2023-04-29T03:04:19;20.77;;;18.88;;
55037;SDS011;40937;53.594;10.034;2023-04-29T03:06:47;18.90;;;17.10;;
55037;SDS011;40937;53.594;10.034;2023-04-29T03:09:14;19.52;;;17.80;;
55037;SDS011;40937;53.594;10.034;2023-04-29T03:11:46;20.10;;;18.30;;
55037;SDS011;40937;53.594;10.034;2023-04-29T03:14:13;20.23;;;18.10;;
55037;SDS011;40937;53.594;10.034;2023-04-29T03:16:40;20.33;;;18.25;;
55037;SDS011;40937;53.594;10.034;2023-04-29T03:19:09;19.73;;;17.90;;
55037;SDS011;40937;53.594;10.034;2023-04-29T03:21:36;19.13;;;17.40;;
55037;SDS011;40937;53.594;10.034;2023-04-29T03:24:04;18.92;;;17.08;;
55037;SDS011;40937;53.594;10.034;2023-04-29T03:26:33;19.85;;;17.75;;
55037;SDS011;40937;53.594;10.034;2023-04-29T03:29:02;19.02;;;17.35;;
55037;SDS011;40937;53.594;10.034;2023-04-29T03:31:29;18.88;;;17.17;;
55037;SDS011;40937;53.594;10.034;2023-04-29T03:33:56;18.98;;;17.23;;
55037;SDS011;40937;53.594;10.034;2023-04-29T03:36:25;22.05;;;18.15;;
55037;SDS011;40937;53.594;10.034;2023-04-29T03:38:59;19.15;;;17.38;;
55037;SDS011;40937;53.594;10.034;2023-04-29T03:41:27;19.40;;;17.65;;
55037;SDS011;40937;53.594;10.034;2023-04-29T03:43:55;20.30;;;18.17;;
55037;SDS011;40937;53.594;10.034;2023-04-29T03:46:26;19.42;;;17.40;;
55037;SDS011;40937;53.594;10.034;2023-04-29T03:48:53;19.75;;;17.50;;
55037;SDS011;40937;53.594;10.034;2023-04-29T03:51:21;24.73;;;18.70;;
55037;SDS011;40937;53.594;10.034;2023-04-29T03:53:53;19.65;;;17.83;;
55037;SDS011;40937;53.594;10.034;2023-04-29T03:56:21;19.63;;;17.52;;
55037;SDS011;40937;53.594;10.034;2023-04-29T03:58:50;19.80;;;18.00;;
55037;SDS011;40937;53.594;10.034;2023-04-29T04:01:18;19.70;;;17.67;;
55037;SDS011;40937;53.594;10.034;2023-04-29T04:03:46;19.92;;;17.55;;
55037;SDS011;40937;53.594;10.034;2023-04-29T04:06:13;20.38;;;18.30;;
55037;SDS011;40937;53.594;10.034;2023-04-29T04:08:42;20.08;;;18.10;;
55037;SDS011;40937;53.594;10.034;2023-04-29T04:11:15;19.58;;;17.80;;
55037;SDS011;40937;53.594;10.034;2023-04-29T04:13:45;19.27;;;17.67;;
55037;SDS011;40937;53.594;10.034;2023-04-29T04:16:14;20.63;;;18.73;;
55037;SDS011;40937;53.594;10.034;2023-04-29T04:18:41;23.73;;;18.92;;
55037;SDS011;40937;53.594;10.034;2023-04-29T04:21:09;21.95;;;19.98;;
55037;SDS011;40937;53.594;10.034;2023-04-29T04:23:37;19.52;;;17.58;;
55037;SDS011;40937;53.594;10.034;2023-04-29T04:26:06;19.90;;;18.08;;
55037;SDS011;40937;53.594;10.034;2023-04-29T04:28:53;21.35;;;19.25;;
55037;SDS011;40937;53.594;10.034;2023-04-29T04:31:41;21.00;;;19.02;;
55037;SDS011;40937;53.594;10.034;2023-04-29T04:34:08;20.67;;;18.75;;
55037;SDS011;40937;53.594;10.034;2023-04-29T04:36:35;21.05;;;18.92;;
55037;SDS011;40937;53.594;10.034;2023-04-29T04:53:01;20.30;;;18.30;;
55037;SDS011;40937;53.594;10.034;2023-04-29T04:55:51;20.15;;;18.15;;
55037;SDS011;40937;53.594;10.034;2023-04-29T04:58:18;18.98;;;16.90;;
55037;SDS011;40937;53.594;10.034;2023-04-29T05:00:45;21.42;;;19.52;;
55037;SDS011;40937;53.594;10.034;2023-04-29T05:03:13;20.13;;;18.33;;
55037;SDS011;40937;53.594;10.034;2023-04-29T05:05:40;18.88;;;17.02;;
55037;SDS011;40937;53.594;10.034;2023-04-29T05:08:08;18.08;;;16.45;;
55037;SDS011;40937;53.594;10.034;2023-04-29T05:10:45;19.60;;;17.70;;
55037;SDS011;40937;53.594;10.034;2023-04-29T05:13:12;18.80;;;16.90;;
55037;SDS011;40937;53.594;10.034;2023-04-29T05:15:39;18.58;;;16.83;;
55037;SDS011;40937;53.594;10.034;2023-04-29T05:18:07;18.38;;;16.58;;
55037;SDS011;40937;53.594;10.034;2023-04-29T05:20:34;19.25;;;17.20;;
55037;SDS011;40937;53.594;10.034;2023-04-29T05:23:01;18.17;;;16.27;;
55037;SDS011;40937;53.594;10.034;2023-04-29T05:25:33;19.77;;;16.58;;
55037;SDS011;40937;53.594;10.034;2023-04-29T05:28:01;26.60;;;16.35;;
55037;SDS011;40937;53.594;10.034;2023-04-29T05:30:30;16.35;;;14.82;;
55037;SDS011;40937;53.594;10.034;2023-04-29T05:32:57;16.65;;;15.25;;
55037;SDS011;40937;53.594;10.034;2023-04-29T05:35:24;16.90;;;15.18;;
55037;SDS011;40937;53.594;10.034;2023-04-29T05:37:51;16.38;;;14.68;;
55037;SDS011;40937;53.594;10.034;2023-04-29T05:40:36;15.55;;;14.02;;
55037;SDS011;40937;53.594;10.034;2023-04-29T05:43:26;15.45;;;13.98;;
55037;SDS011;40937;53.594;10.034;2023-04-29T05:45:55;15.55;;;13.85;;
55037;SDS011;40937;53.594;10.034;2023-04-29T05:48:22;15.85;;;14.10;;
55037;SDS011;40937;53.594;10.034;2023-04-29T05:50:50;14.05;;;12.52;;
55037;SDS011;40937;53.594;10.034;2023-04-29T05:53:18;14.65;;;13.27;;
55037;SDS011;40937;53.594;10.034;2023-04-29T05:55:48;18.05;;;13.93;;
55037;SDS011;40937;53.594;10.034;2023-04-29T05:58:16;14.27;;;12.60;;
55037;SDS011;40937;53.594;10.034;2023-04-29T06:00:43;14.75;;;12.80;;
55037;SDS011;40937;53.594;10.034;2023-04-29T06:03:16;14.43;;;12.98;;
55037;SDS011;40937;53.594;10.034;2023-04-29T06:05:43;13.85;;;12.55;;
55037;SDS011;40937;53.594;10.034;2023-04-29T06:08:24;25.05;;;12.15;;
55037;SDS011;40937;53.594;10.034;2023-04-29T06:11:03;14.38;;;11.50;;
55037;SDS011;40937;53.594;10.034;2023-04-29T06:13:31;17.67;;;11.95;;
55037;SDS011;40937;53.594;10.034;2023-04-29T06:15:57;16.80;;;12.05;;
55037;SDS011;40937;53.594;10.034;2023-04-29T06:18:26;12.73;;;11.43;;
55037;SDS011;40937;53.594;10.034;2023-04-29T06:20:53;13.13;;;11.18;;
55037;SDS011;40937;53.594;10.034;2023-04-29T06:23:20;11.55;;;10.52;;
55037;SDS011;40937;53.594;10.034;2023-04-29T06:25:47;11.77;;;10.82;;
55037;SDS011;40937;53.594;10.034;2023-04-29T06:28:16;12.02;;;10.95;;
55037;SDS011;40937;53.594;10.034;2023-04-29T06:30:43;12.48;;;11.02;;
55037;SDS011;40937;53.594;10.034;2023-04-29T06:33:11;18.92;;;11.55;;
55037;SDS011;40937;53.594;10.034;2023-04-29T06:35:38;14.75;;;10.75;;
55037;SDS011;40937;53.594;10.034;2023-04-29T06:38:24;15.07;;;11.80;;
55037;SDS011;40937;53.594;10.034;2023-04-29T06:40:59;12.88;;;11.68;;
55037;SDS011;40937;53.594;10.034;2023-04-29T06:43:43;12.27;;;11.27;;
55037;SDS011;40937;53.594;10.034;2023-04-29T06:46:29;15.75;;;12.02;;
55037;SDS011;40937;53.594;10.034;2023-04-29T06:49:02;13.65;;;12.20;;
55037;SDS011;40937;53.594;10.034;2023-04-29T06:51:31;14.68;;;11.55;;
55037;SDS011;40937;53.594;10.034;2023-04-29T06:53:58;16.17;;;11.95;;
55037;SDS011;40937;53.594;10.034;2023-04-29T06:56:25;17.45;;;12.50;;
55037;SDS011;40937;53.594;10.034;2023-04-29T06:58:54;13.30;;;11.90;;
55037;SDS011;40937;53.594;10.034;2023-04-29T07:01:21;13.85;;;11.32;;
55037;SDS011;40937;53.594;10.034;2023-04-29T07:03:49;12.55;;;11.27;;
55037;SDS011;40937;53.594;10.034;2023-04-29T07:06:18;14.57;;;11.52;;
55037;SDS011;40937;53.594;10.034;2023-04-29T07:08:45;16.73;;;11.65;;
55037;SDS011;40937;53.594;10.034;2023-04-29T07:11:14;14.30;;;10.45;;
55037;SDS011;40937;53.594;10.034;2023-04-29T07:13:41;13.32;;;9.93;;
55037;SDS011;40937;53.594;10.034;2023-04-29T07:16:14;9.52;;;8.73;;
55037;SDS011;40937;53.594;10.034;2023-04-29T07:18:42;11.05;;;8.07;;
55037;SDS011;40937;53.594;10.034;2023-04-29T07:21:10;11.25;;;8.38;;
55037;SDS011;40937;53.594;10.034;2023-04-29T07:23:37;10.77;;;8.90;;
55037;SDS011;40937;53.594;10.034;2023-04-29T07:26:08;9.68;;;8.77;;
55037;SDS011;40937;53.594;10.034;2023-04-29T07:28:34;12.45;;;9.43;;
55037;SDS011;40937;53.594;10.034;2023-04-29T07:31:01;10.95;;;8.75;;
55037;SDS011;40937;53.594;10.034;2023-04-29T07:33:30;9.18;;;8.07;;
55037;SDS011;40937;53.594;10.034;2023-04-29T07:35:57;12.15;;;7.63;;
55037;SDS011;40937;53.594;10.034;2023-04-29T07:38:24;9.57;;;7.20;;
55037;SDS011;40937;53.594;10.034;2023-04-29T07:40:52;14.93;;;7.70;;
55037;SDS011;40937;53.594;10.034;2023-04-29T07:43:19;11.75;;;7.88;;
55037;SDS011;40937;53.594;10.034;2023-04-29T07:45:46;8.52;;;7.43;;
55037;SDS011;40937;53.594;10.034;2023-04-29T07:48:15;16.38;;;10.50;;
55037;SDS011;40937;53.594;10.034;2023-04-29T07:50:44;9.43;;;8.40;;
55037;SDS011;40937;53.594;10.034;2023-04-29T07:53:11;9.30;;;7.78;;
55037;SDS011;40937;53.594;10.034;2023-04-29T07:55:37;10.00;;;8.25;;
55037;SDS011;40937;53.594;10.034;2023-04-29T07:58:05;8.82;;;7.97;;
55037;SDS011;40937;53.594;10.034;2023-04-29T08:00:32;9.27;;;8.02;;
55037;SDS011;40937;53.594;10.034;2023-04-29T08:02:59;9.55;;;8.07;;
55037;SDS011;40937;53.594;10.034;2023-04-29T08:05:27;8.32;;;7.47;;
55037;SDS011;40937;53.594;10.034;2023-04-29T08:07:56;10.90;;;7.95;;
55037;SDS011;40937;53.594;10.034;2023-04-29T08:10:24;13.63;;;8.32;;
55037;SDS011;40937;53.594;10.034;2023-04-29T08:12:52;11.52;;;7.32;;
55037;SDS011;40937;53.594;10.034;2023-04-29T08:15:18;9.25;;;7.22;;
55037;SDS011;40937;53.594;10.034;2023-04-29T08:17:45;10.30;;;6.93;;
55037;SDS011;40937;53.594;10.034;2023-04-29T08:20:12;8.00;;;7.20;;
55037;SDS011;40937;53.594;10.034;2023-04-29T08:22:39;7.95;;;7.15;;
55037;SDS011;40937;53.594;10.034;2023-04-29T08:25:09;9.43;;;6.65;;
55037;SDS011;40937;53.594;10.034;2023-04-29T08:27:36;8.82;;;7.15;;
55037;SDS011;40937;53.594;10.034;2023-04-29T08:30:03;8.45;;;7.35;;
55037;SDS011;40937;53.594;10.034;2023-04-29T08:32:30;10.65;;;7.65;;
55037;SDS011;40937;53.594;10.034;2023-04-29T08:34:58;10.07;;;7.22;;
55037;SDS011;40937;53.594;10.034;2023-04-29T08:37:26;7.97;;;7.18;;
55037;SDS011;40937;53.594;10.034;2023-04-29T08:39:53;14.18;;;7.38;;
55037;SDS011;40937;53.594;10.034;2023-04-29T08:42:27;11.00;;;7.20;;
55037;SDS011;40937;53.594;10.034;2023-04-29T08:44:57;9.68;;;8.45;;
55037;SDS011;40937;53.594;10.034;2023-04-29T08:47:26;8.88;;;7.20;;
55037;SDS011;40937;53.594;10.034;2023-04-29T08:49:53;9.80;;;8.77;;
55037;SDS011;40937;53.594;10.034;2023-04-29T08:52:20;9.43;;;8.57;;
55037;SDS011;40937;53.594;10.034;2023-04-29T08:54:50;10.90;;;8.77;;
55037;SDS011;40937;53.594;10.034;2023-04-29T08:57:18;11.38;;;8.65;;
55037;SDS011;40937;53.594;10.034;2023-04-29T08:59:47;10.95;;;8.43;;
55037;SDS011;40937;53.594;10.034;2023-04-29T09:02:14;8.68;;;7.88;;
55037;SDS011;40937;53.594;10.034;2023-04-29T09:04:45;9.65;;;7.88;;
55037;SDS011;40937;53.594;10.034;2023-04-29T09:07:13;12.82;;;8.50;;
55037;SDS011;40937;53.594;10.034;2023-04-29T09:09:40;9.10;;;8.30;;
55037;SDS011;40937;53.594;10.034;2023-04-29T09:12:07;9.70;;;8.57;;
55037;SDS011;40937;53.594;10.034;2023-04-29T09:14:34;10.60;;;9.38;;
55037;SDS011;40937;53.594;10.034;2023-04-29T09:17:03;9.18;;;8.48;;
55037;SDS011;40937;53.594;10.034;2023-04-29T09:19:31;12.25;;;9.45;;
55037;SDS011;40937;53.594;10.034;2023-04-29T09:21:58;10.75;;;7.85;;
55037;SDS011;40937;53.594;10.034;2023-04-29T09:24:26;13.23;;;8.43;;
55037;SDS011;40937;53.594;10.034;2023-04-29T09:26:53;10.23;;;8.82;;
55037;SDS011;40937;53.594;10.034;2023-04-29T09:29:20;13.70;;;8.57;;
55037;SDS011;40937;53.594;10.034;2023-04-29T09:31:48;9.25;;;8.30;;
55037;SDS011;40937;53.594;10.034;2023-04-29T09:34:17;12.60;;;8.43;;
55037;SDS011;40937;53.594;10.034;2023-04-29T09:36:44;9.50;;;8.57;;
55037;SDS011;40937;53.594;10.034;2023-04-29T09:39:11;13.50;;;8.85;;
55037;SDS011;40937;53.594;10.034;2023-04-29T09:41:39;9.10;;;8.40;;
55037;SDS011;40937;53.594;10.034;2023-04-29T09:44:07;9.10;;;8.35;;
55037;SDS011;40937;53.594;10.034;2023-04-29T09:46:34;11.93;;;8.95;;
55037;SDS011;40937;53.594;10.034;2023-04-29T09:49:01;10.85;;;8.75;;
55037;SDS011;40937;53.594;10.034;2023-04-29T09:51:30;8.20;;;7.35;;
55037;SDS011;40937;53.594;10.034;2023-04-29T09:53:58;12.18;;;8.73;;
55037;SDS011;40937;53.594;10.034;2023-04-29T09:56:25;11.30;;;8.15;;
55037;SDS011;40937;53.594;10.034;2023-04-29T09:58:54;12.65;;;8.82;;
55037;SDS011;40937;53.594;10.034;2023-04-29T10:01:22;9.65;;;7.70;;
55037;SDS011;40937;53.594;10.034;2023-04-29T10:03:48;6.70;;;6.10;;
55037;SDS011;40937;53.594;10.034;2023-04-29T10:06:16;10.27;;;7.30;;
55037;SDS011;40937;53.594;10.034;2023-04-29T10:08:45;9.82;;;7.38;;
55037;SDS011;40937;53.594;10.034;2023-04-29T10:11:16;8.88;;;7.03;;
55037;SDS011;40937;53.594;10.034;2023-04-29T10:13:43;7.65;;;6.88;;
55037;SDS011;40937;53.594;10.034;2023-04-29T10:16:14;8.18;;;6.93;;
55037;SDS011;40937;53.594;10.034;2023-04-29T10:18:43;9.80;;;7.45;;
55037;SDS011;40937;53.594;10.034;2023-04-29T10:21:13;12.73;;;7.47;;
55037;SDS011;40937;53.594;10.034;2023-04-29T10:23:41;8.07;;;6.78;;
55037;SDS011;40937;53.594;10.034;2023-04-29T10:26:11;7.88;;;5.82;;
55037;SDS011;40937;53.594;10.034;2023-04-29T10:28:39;7.38;;;6.22;;
55037;SDS011;40937;53.594;10.034;2023-04-29T10:31:06;9.95;;;6.20;;
55037;SDS011;40937;53.594;10.034;2023-04-29T10:33:33;12.93;;;7.13;;
55037;SDS011;40937;53.594;10.034;2023-04-29T10:36:01;7.32;;;6.18;;
55037;SDS011;40937;53.594;10.034;2023-04-29T10:38:29;11.55;;;6.30;;
55037;SDS011;40937;53.594;10.034;2023-04-29T10:40:56;7.85;;;7.20;;
55037;SDS011;40937;53.594;10.034;2023-04-29T10:43:25;7.28;;;3.97;;
55037;SDS011;40937;53.594;10.034;2023-04-29T10:48:34;10.32;;;7.35;;
55037;SDS011;40937;53.594;10.034;2023-04-29T10:51:04;11.32;;;7.07;;
55037;SDS011;40937;53.594;10.034;2023-04-29T10:56:36;7.57;;;6.55;;
55037;SDS011;40937;53.594;10.034;2023-04-29T10:59:58;8.10;;;6.50;;
55037;SDS011;40937;53.594;10.034;2023-04-29T11:03:14;7.88;;;7.18;;
55037;SDS011;40937;53.594;10.034;2023-04-29T11:06:51;9.02;;;7.88;;
55037;SDS011;40937;53.594;10.034;2023-04-29T11:09:23;5.93;;;5.43;;
55037;SDS011;40937;53.594;10.034;2023-04-29T11:12:00;13.43;;;6.43;;
55037;SDS011;40937;53.594;10.034;2023-04-29T11:14:29;7.43;;;6.15;;
55037;SDS011;40937;53.594;10.034;2023-04-29T11:16:58;12.85;;;7.22;;
55037;SDS011;40937;53.594;10.034;2023-04-29T11:19:29;11.88;;;7.45;;
55037;SDS011;40937;53.594;10.034;2023-04-29T11:24:52;7.07;;;6.13;;
55037;SDS011;40937;53.594;10.034;2023-04-29T11:27:20;7.25;;;6.65;;
55037;SDS011;40937;53.594;10.034;2023-04-29T11:29:50;8.77;;;7.10;;
55037;SDS011;40937;53.594;10.034;2023-04-29T11:32:20;9.80;;;6.25;;
55037;SDS011;40937;53.594;10.034;2023-04-29T11:34:50;11.13;;;5.97;;
55037;SDS011;40937;53.594;10.034;2023-04-29T11:37:21;8.75;;;7.80;;
55037;SDS011;40937;53.594;10.034;2023-04-29T11:39:48;8.82;;;7.35;;
55037;SDS011;40937;53.594;10.034;2023-04-29T11:42:18;7.40;;;6.80;;
55037;SDS011;40937;53.594;10.034;2023-04-29T11:44:45;10.70;;;7.60;;
55037;SDS011;40937;53.594;10.034;2023-04-29T11:47:13;8.55;;;7.70;;
55037;SDS011;40937;53.594;10.034;2023-04-29T11:49:41;6.93;;;6.30;;
55037;SDS011;40937;53.594;10.034;2023-04-29T11:52:08;11.40;;;6.22;;
55037;SDS011;40937;53.594;10.034;2023-04-29T11:54:36;6.93;;;6.32;;
55037;SDS011;40937;53.594;10.034;2023-04-29T11:57:03;8.88;;;6.65;;
55037;SDS011;40937;53.594;10.034;2023-04-29T11:59:30;10.43;;;6.85;;
55037;SDS011;40937;53.594;10.034;2023-04-29T12:01:57;7.75;;;6.47;;
55037;SDS011;40937;53.594;10.034;2023-04-29T12:04:31;12.13;;;7.18;;
55037;SDS011;40937;53.594;10.034;2023-04-29T12:07:18;6.13;;;5.63;;
55037;SDS011;40937;53.594;10.034;2023-04-29T12:09:58;9.23;;;5.72;;
55037;SDS011;40937;53.594;10.034;2023-04-29T12:12:34;6.75;;;5.13;;
55037;SDS011;40937;53.594;10.034;2023-04-29T12:15:19;5.72;;;5.22;;
55037;SDS011;40937;53.594;10.034;2023-04-29T12:17:50;6.75;;;5.43;;
55037;SDS011;40937;53.594;10.034;2023-04-29T12:20:19;7.47;;;6.35;;
55037;SDS011;40937;53.594;10.034;2023-04-29T12:22:48;6.60;;;5.35;;
55037;SDS011;40937;53.594;10.034;2023-04-29T12:25:15;5.60;;;5.10;;
55037;SDS011;40937;53.594;10.034;2023-04-29T12:27:42;6.05;;;5.55;;
55037;SDS011;40937;53.594;10.034;2023-04-29T12:30:11;5.97;;;5.40;;
55037;SDS011;40937;53.594;10.034;2023-04-29T12:32:38;16.25;;;4.93;;
55037;SDS011;40937;53.594;10.034;2023-04-29T12:35:05;10.95;;;4.93;;
55037;SDS011;40937;53.594;10.034;2023-04-29T12:37:40;12.30;;;4.45;;
55037;SDS011;40937;53.594;10.034;2023-04-29T12:40:12;4.85;;;3.63;;
55037;SDS011;40937;53.594;10.034;2023-04-29T12:42:39;7.30;;;3.63;;
55037;SDS011;40937;53.594;10.034;2023-04-29T12:45:06;6.53;;;3.58;;
55037;SDS011;40937;53.594;10.034;2023-04-29T12:47:33;3.58;;;2.85;;
55037;SDS011;40937;53.594;10.034;2023-04-29T12:50:01;5.50;;;3.45;;
55037;SDS011;40937;53.594;10.034;2023-04-29T12:52:28;3.28;;;3.00;;
55037;SDS011;40937;53.594;10.034;2023-04-29T12:54:55;10.40;;;4.13;;
55037;SDS011;40937;53.594;10.034;2023-04-29T12:57:24;4.13;;;3.72;;
55037;SDS011;40937;53.594;10.034;2023-04-29T12:59:51;6.28;;;3.60;;
55037;SDS011;40937;53.594;10.034;2023-04-29T13:02:18;8.07;;;4.50;;
55037;SDS011;40937;53.594;10.034;2023-04-29T13:04:45;10.60;;;4.88;;
55037;SDS011;40937;53.594;10.034;2023-04-29T13:07:12;6.80;;;4.82;;
55037;SDS011;40937;53.594;10.034;2023-04-29T13:09:38;5.93;;;4.85;;
55037;SDS011;40937;53.594;10.034;2023-04-29T13:12:06;7.30;;;4.93;;
55037;SDS011;40937;53.594;10.034;2023-04-29T13:14:35;8.20;;;5.10;;
55037;SDS011;40937;53.594;10.034;2023-04-29T13:17:02;9.30;;;5.00;;
55037;SDS011;40937;53.594;10.034;2023-04-29T13:19:29;11.65;;;5.60;;
55037;SDS011;40937;53.594;10.034;2023-04-29T13:21:57;6.55;;;5.10;;
55037;SDS011;40937;53.594;10.034;2023-04-29T13:24:24;6.15;;;5.07;;
55037;SDS011;40937;53.594;10.034;2023-04-29T13:26:51;5.60;;;4.65;;
55037;SDS011;40937;53.594;10.034;2023-04-29T13:29:19;6.03;;;4.57;;
55037;SDS011;40937;53.594;10.034;2023-04-29T13:31:47;7.00;;;4.35;;
55037;SDS011;40937;53.594;10.034;2023-04-29T13:34:14;7.47;;;4.45;;
55037;SDS011;40937;53.594;10.034;2023-04-29T13:36:44;7.72;;;4.18;;
55037;SDS011;40937;53.594;10.034;2023-04-29T13:39:11;7.85;;;3.70;;
55037;SDS011;40937;53.594;10.034;2023-04-29T13:41:38;4.72;;;3.17;;
55037;SDS011;40937;53.594;10.034;2023-04-29T13:44:05;5.00;;;3.03;;
55037;SDS011;40937;53.594;10.034;2023-04-29T13:46:32;2.85;;;2.50;;
55037;SDS011;40937;53.594;10.034;2023-04-29T13:49:00;3.35;;;2.25;;
55037;SDS011;40937;53.594;10.034;2023-04-29T13:51:28;3.22;;;2.20;;
55037;SDS011;40937;53.594;10.034;2023-04-29T13:53:56;8.30;;;2.80;;
55037;SDS011;40937;53.594;10.034;2023-04-29T13:56:23;5.22;;;2.17;;
55037;SDS011;40937;53.594;10.034;2023-04-29T13:58:50;1.88;;;1.77;;
55037;SDS011;40937;53.594;10.034;2023-04-29T14:01:20;4.05;;;2.20;;
55037;SDS011;40937;53.594;10.034;2023-04-29T14:03:48;4.38;;;1.85;;
55037;SDS011;40937;53.594;10.034;2023-04-29T14:06:16;8.40;;;3.83;;
55037;SDS011;40937;53.594;10.034;2023-04-29T14:08:43;3.83;;;2.20;;
55037;SDS011;40937;53.594;10.034;2023-04-29T14:11:11;6.15;;;2.30;;
55037;SDS011;40937;53.594;10.034;2023-04-29T14:13:37;5.20;;;2.58;;
55037;SDS011;40937;53.594;10.034;2023-04-29T14:16:05;2.97;;;2.00;;
55037;SDS011;40937;53.594;10.034;2023-04-29T14:18:33;4.68;;;2.35;;
55037;SDS011;40937;53.594;10.034;2023-04-29T14:21:03;3.30;;;1.98;;
55037;SDS011;40937;53.594;10.034;2023-04-29T14:23:31;2.67;;;2.20;;
55037;SDS011;40937;53.594;10.034;2023-04-29T14:26:00;3.63;;;2.17;;
55037;SDS011;40937;53.594;10.034;2023-04-29T14:28:36;3.72;;;2.40;;
55037;SDS011;40937;53.594;10.034;2023-04-29T14:31:03;4.32;;;2.20;;
55037;SDS011;40937;53.594;10.034;2023-04-29T14:33:30;2.88;;;2.15;;
55037;SDS011;40937;53.594;10.034;2023-04-29T14:35:57;3.10;;;2.05;;
55037;SDS011;40937;53.594;10.034;2023-04-29T14:38:25;2.03;;;1.73;;
55037;SDS011;40937;53.594;10.034;2023-04-29T14:40:53;2.85;;;1.98;;
55037;SDS011;40937;53.594;10.034;2023-04-29T14:43:20;2.22;;;1.77;;
55037;SDS011;40937;53.594;10.034;2023-04-29T14:45:47;5.45;;;2.10;;
55037;SDS011;40937;53.594;10.034;2023-04-29T14:48:14;9.45;;;2.35;;
55037;SDS011;40937;53.594;10.034;2023-04-29T14:50:41;3.65;;;2.10;;
55037;SDS011;40937;53.594;10.034;2023-04-29T14:53:08;3.33;;;1.95;;
55037;SDS011;40937;53.594;10.034;2023-04-29T14:55:35;1.92;;;1.73;;
55037;SDS011;40937;53.594;10.034;2023-04-29T14:58:03;3.90;;;1.83;;